Terminal Aerodrome Forecast
Issued by NWS St Louis, MO

Home | Current Version | Previous Version | Text Only | Print | Product List | Glossary On
Versions: 1 2 3 4 5 6 7 8 9 10 11 12 13 14 15 16 17 18 19 20 21 22 23 24 25 26
677
FTUS43 KLSX 240520
TAFCOU
TAF
KCOU 240520Z 2406/2506 18008KT P6SM SCT050 BKN080
     FM241500 22012KT P6SM SCT060 BKN250
     FM242200 22012KT P6SM VCTS BKN050CB
     FM250300 18007KT P6SM BKN050 BKN250=

USA.gov is the U.S. government's official web portal to all federal, state and local government web resources and services.